sensor_id;sensor_type;location;lat;lon;timestamp;pressure;altitude;pressure_sealevel;temperature;humidity
50105;BME280;47690;39.202;-77.198;2024-01-15T00:01:35;100599.66;;;3.31;31.10
50105;BME280;47690;39.202;-77.198;2024-01-15T00:04:04;100613.22;;;3.30;30.95
50105;BME280;47690;39.202;-77.198;2024-01-15T00:06:34;100617.47;;;3.31;30.87
50105;BME280;47690;39.202;-77.198;2024-01-15T00:09:03;100637.00;;;3.31;30.91
50105;BME280;47690;39.202;-77.198;2024-01-15T00:11:33;100649.69;;;3.29;30.70
50105;BME280;47690;39.202;-77.198;2024-01-15T00:14:03;100646.25;;;3.27;31.23
50105;BME280;47690;39.202;-77.198;2024-01-15T00:16:32;100654.69;;;3.24;31.06
50105;BME280;47690;39.202;-77.198;2024-01-15T00:19:01;100648.72;;;3.24;31.29
50105;BME280;47690;39.202;-77.198;2024-01-15T00:21:31;100649.50;;;3.20;30.94
50105;BME280;47690;39.202;-77.198;2024-01-15T00:24:03;100646.03;;;3.16;30.98
50105;BME280;47690;39.202;-77.198;2024-01-15T00:26:33;100645.16;;;3.16;31.11
50105;BME280;47690;39.202;-77.198;2024-01-15T00:29:03;100628.16;;;3.14;31.29
50105;BME280;47690;39.202;-77.198;2024-01-15T00:31:33;100636.63;;;3.13;31.08
50105;BME280;47690;39.202;-77.198;2024-01-15T00:34:03;100642.50;;;3.11;31.53
50105;BME280;47690;39.202;-77.198;2024-01-15T00:36:33;100661.16;;;3.10;31.74
50105;BME280;47690;39.202;-77.198;2024-01-15T00:39:04;100667.91;;;3.08;31.49
50105;BME280;47690;39.202;-77.198;2024-01-15T00:41:39;100680.53;;;3.03;31.75
50105;BME280;47690;39.202;-77.198;2024-01-15T00:44:07;100677.06;;;3.01;31.83
50105;BME280;47690;39.202;-77.198;2024-01-15T00:46:45;100682.16;;;3.01;31.11
50105;BME280;47690;39.202;-77.198;2024-01-15T00:49:16;100682.06;;;2.96;31.65
50105;BME280;47690;39.202;-77.198;2024-01-15T00:51:47;100682.09;;;2.98;31.75
50105;BME280;47690;39.202;-77.198;2024-01-15T00:54:16;100676.94;;;2.95;31.52
50105;BME280;47690;39.202;-77.198;2024-01-15T00:56:46;100685.28;;;2.89;31.08
50105;BME280;47690;39.202;-77.198;2024-01-15T00:59:15;100691.25;;;2.90;31.43
50105;BME280;47690;39.202;-77.198;2024-01-15T01:01:43;100689.56;;;2.90;31.52
50105;BME280;47690;39.202;-77.198;2024-01-15T01:04:16;100692.09;;;2.89;31.31
50105;BME280;47690;39.202;-77.198;2024-01-15T01:06:45;100699.72;;;2.90;31.41
50105;BME280;47690;39.202;-77.198;2024-01-15T01:09:13;100692.09;;;2.90;30.77
50105;BME280;47690;39.202;-77.198;2024-01-15T01:11:42;100683.63;;;2.90;31.09
50105;BME280;47690;39.202;-77.198;2024-01-15T01:14:12;100683.53;;;2.86;31.04
50105;BME280;47690;39.202;-77.198;2024-01-15T01:16:41;100672.50;;;2.86;31.26
50105;BME280;47690;39.202;-77.198;2024-01-15T01:19:11;100670.78;;;2.85;30.64
50105;BME280;47690;39.202;-77.198;2024-01-15T01:21:40;100663.84;;;2.78;30.63
50105;BME280;47690;39.202;-77.198;2024-01-15T01:24:11;100667.28;;;2.80;30.33
50105;BME280;47690;39.202;-77.198;2024-01-15T01:26:40;100671.47;;;2.79;30.05
50105;BME280;47690;39.202;-77.198;2024-01-15T01:29:09;100678.34;;;2.82;30.15
50105;BME280;47690;39.202;-77.198;2024-01-15T01:31:43;100672.50;;;2.86;29.97
50105;BME280;47690;39.202;-77.198;2024-01-15T01:34:15;100658.91;;;2.85;30.46
50105;BME280;47690;39.202;-77.198;2024-01-15T01:36:45;100652.88;;;2.82;29.98
50105;BME280;47690;39.202;-77.198;2024-01-15T01:39:15;100659.69;;;2.81;30.15
50105;BME280;47690;39.202;-77.198;2024-01-15T01:41:43;100652.84;;;2.79;29.97
50105;BME280;47690;39.202;-77.198;2024-01-15T01:44:11;100646.88;;;2.78;29.39
50105;BME280;47690;39.202;-77.198;2024-01-15T01:46:41;100644.28;;;2.77;30.16
50105;BME280;47690;39.202;-77.198;2024-01-15T01:49:10;100630.69;;;2.75;29.85
50105;BME280;47690;39.202;-77.198;2024-01-15T01:51:39;100617.03;;;2.71;30.00
50105;BME280;47690;39.202;-77.198;2024-01-15T01:54:10;100608.44;;;2.66;29.57
50105;BME280;47690;39.202;-77.198;2024-01-15T01:56:42;100619.22;;;2.55;29.13
50105;BME280;47690;39.202;-77.198;2024-01-15T01:59:11;100635.19;;;2.50;29.40
50105;BME280;47690;39.202;-77.198;2024-01-15T02:01:41;100634.22;;;2.44;29.57
50105;BME280;47690;39.202;-77.198;2024-01-15T02:04:14;100625.59;;;2.39;29.35
50105;BME280;47690;39.202;-77.198;2024-01-15T02:06:48;100628.13;;;2.38;29.72
50105;BME280;47690;39.202;-77.198;2024-01-15T02:09:18;100647.59;;;2.37;29.14
50105;BME280;47690;39.202;-77.198;2024-01-15T02:11:48;100645.94;;;2.39;29.76
50105;BME280;47690;39.202;-77.198;2024-01-15T02:14:17;100645.16;;;2.42;29.33
50105;BME280;47690;39.202;-77.198;2024-01-15T02:16:54;100655.44;;;2.45;29.10
50105;BME280;47690;39.202;-77.198;2024-01-15T02:19:24;100668.16;;;2.45;29.76
50105;BME280;47690;39.202;-77.198;2024-01-15T02:21:57;100680.91;;;2.48;29.21
50105;BME280;47690;39.202;-77.198;2024-01-15T02:24:36;100684.34;;;2.49;29.51
50105;BME280;47690;39.202;-77.198;2024-01-15T02:27:07;100690.09;;;2.43;29.15
50105;BME280;47690;39.202;-77.198;2024-01-15T02:29:36;100688.31;;;2.39;29.16
50105;BME280;47690;39.202;-77.198;2024-01-15T02:32:09;100695.91;;;2.37;29.18
50105;BME280;47690;39.202;-77.198;2024-01-15T02:34:41;100702.72;;;2.38;29.19
50105;BME280;47690;39.202;-77.198;2024-01-15T02:37:10;100700.22;;;2.40;29.68
50105;BME280;47690;39.202;-77.198;2024-01-15T02:39:43;100697.66;;;2.40;29.08
50105;BME280;47690;39.202;-77.198;2024-01-15T02:42:12;100699.28;;;2.36;29.48
50105;BME280;47690;39.202;-77.198;2024-01-15T02:44:42;100706.13;;;2.39;29.62
50105;BME280;47690;39.202;-77.198;2024-01-15T02:47:11;100714.56;;;2.38;29.36
50105;BME280;47690;39.202;-77.198;2024-01-15T02:49:41;100718.78;;;2.37;29.35
50105;BME280;47690;39.202;-77.198;2024-01-15T02:52:10;100715.41;;;2.37;29.53
50105;BME280;47690;39.202;-77.198;2024-01-15T02:54:38;100716.28;;;2.39;29.12
50105;BME280;47690;39.202;-77.198;2024-01-15T02:57:07;100715.53;;;2.43;29.14
50105;BME280;47690;39.202;-77.198;2024-01-15T02:59:36;100713.91;;;2.45;29.45
50105;BME280;47690;39.202;-77.198;2024-01-15T03:02:27;100717.34;;;2.47;29.53
50105;BME280;47690;39.202;-77.198;2024-01-15T03:04:55;100722.44;;;2.47;29.58
50105;BME280;47690;39.202;-77.198;2024-01-15T03:07:25;100726.66;;;2.46;29.48
50105;BME280;47690;39.202;-77.198;2024-01-15T03:09:55;100728.34;;;2.46;29.13
50105;BME280;47690;39.202;-77.198;2024-01-15T03:12:26;100727.53;;;2.47;29.31
50105;BME280;47690;39.202;-77.198;2024-01-15T03:14:55;100722.44;;;2.47;29.54
50105;BME280;47690;39.202;-77.198;2024-01-15T03:17:30;100713.19;;;2.51;26.94
50105;BME280;47690;39.202;-77.198;2024-01-15T03:20:07;100715.59;;;2.44;28.58
50105;BME280;47690;39.202;-77.198;2024-01-15T03:22:36;100714.56;;;2.38;29.49
50105;BME280;47690;39.202;-77.198;2024-01-15T03:25:07;100727.28;;;2.38;28.46
50105;BME280;47690;39.202;-77.198;2024-01-15T03:27:37;100724.59;;;2.31;29.32
50105;BME280;47690;39.202;-77.198;2024-01-15T03:30:09;100736.41;;;2.31;28.83
50105;BME280;47690;39.202;-77.198;2024-01-15T03:32:44;100744.09;;;2.32;29.19
50105;BME280;47690;39.202;-77.198;2024-01-15T03:35:19;100754.31;;;2.34;29.10
50105;BME280;47690;39.202;-77.198;2024-01-15T03:37:48;100749.28;;;2.37;29.57
50105;BME280;47690;39.202;-77.198;2024-01-15T03:40:20;100757.81;;;2.39;29.11
50105;BME280;47690;39.202;-77.198;2024-01-15T03:42:50;100766.38;;;2.41;29.54
50105;BME280;47690;39.202;-77.198;2024-01-15T03:45:20;100765.53;;;2.42;29.12
50105;BME280;47690;39.202;-77.198;2024-01-15T03:47:48;100775.66;;;2.41;29.20
50105;BME280;47690;39.202;-77.198;2024-01-15T03:50:17;100773.06;;;2.38;29.22
50105;BME280;47690;39.202;-77.198;2024-01-15T03:52:46;100772.94;;;2.35;29.88
50105;BME280;47690;39.202;-77.198;2024-01-15T03:55:15;100773.78;;;2.34;29.63
50105;BME280;47690;39.202;-77.198;2024-01-15T03:57:43;100771.25;;;2.34;29.68
50105;BME280;47690;39.202;-77.198;2024-01-15T04:00:14;100772.94;;;2.35;29.48
50105;BME280;47690;39.202;-77.198;2024-01-15T04:02:45;100772.13;;;2.34;29.03
50105;BME280;47690;39.202;-77.198;2024-01-15T04:05:14;100775.47;;;2.33;29.08
50105;BME280;47690;39.202;-77.198;2024-01-15T04:07:43;100769.53;;;2.32;29.18
50105;BME280;47690;39.202;-77.198;2024-01-15T04:10:13;100781.34;;;2.32;29.45
50105;BME280;47690;39.202;-77.198;2024-01-15T04:12:42;100787.25;;;2.31;28.87
50105;BME280;47690;39.202;-77.198;2024-01-15T04:15:12;100799.19;;;2.34;28.86
50105;BME280;47690;39.202;-77.198;2024-01-15T04:17:41;100801.03;;;2.38;29.31
50105;BME280;47690;39.202;-77.198;2024-01-15T04:20:11;100792.66;;;2.42;29.31
50105;BME280;47690;39.202;-77.198;2024-01-15T04:22:43;100789.31;;;2.44;29.51
50105;BME280;47690;39.202;-77.198;2024-01-15T04:25:14;100791.91;;;2.46;29.34
50105;BME280;47690;39.202;-77.198;2024-01-15T04:27:42;100776.59;;;2.44;29.35
50105;BME280;47690;39.202;-77.198;2024-01-15T04:30:12;100774.91;;;2.43;29.30
50105;BME280;47690;39.202;-77.198;2024-01-15T04:32:48;100779.97;;;2.43;29.31
50105;BME280;47690;39.202;-77.198;2024-01-15T04:35:16;100785.84;;;2.41;29.58
50105;BME280;47690;39.202;-77.198;2024-01-15T04:37:47;100782.53;;;2.43;28.96
50105;BME280;47690;39.202;-77.198;2024-01-15T04:40:19;100777.44;;;2.43;28.78
50105;BME280;47690;39.202;-77.198;2024-01-15T04:42:48;100769.84;;;2.45;29.32
50105;BME280;47690;39.202;-77.198;2024-01-15T04:45:16;100762.19;;;2.43;28.83
50105;BME280;47690;39.202;-77.198;2024-01-15T04:47:46;100751.97;;;2.42;29.00
50105;BME280;47690;39.202;-77.198;2024-01-15T04:50:15;100748.59;;;2.43;29.33
50105;BME280;47690;39.202;-77.198;2024-01-15T04:52:43;100741.78;;;2.42;29.49
50105;BME280;47690;39.202;-77.198;2024-01-15T04:55:13;100741.78;;;2.42;28.95
50105;BME280;47690;39.202;-77.198;2024-01-15T04:57:42;100750.25;;;2.41;29.53
50105;BME280;47690;39.202;-77.198;2024-01-15T05:00:11;100753.72;;;2.44;29.45
50105;BME280;47690;39.202;-77.198;2024-01-15T05:02:42;100750.34;;;2.45;29.63
50105;BME280;47690;39.202;-77.198;2024-01-15T05:05:12;100746.19;;;2.48;29.27
50105;BME280;47690;39.202;-77.198;2024-01-15T05:07:42;100757.25;;;2.50;29.42
50105;BME280;47690;39.202;-77.198;2024-01-15T05:10:11;100750.53;;;2.52;29.01
50105;BME280;47690;39.202;-77.198;2024-01-15T05:12:40;100748.91;;;2.55;29.46
50105;BME280;47690;39.202;-77.198;2024-01-15T05:15:08;100760.81;;;2.56;29.04
50105;BME280;47690;39.202;-77.198;2024-01-15T05:17:41;100753.22;;;2.58;29.10
50105;BME280;47690;39.202;-77.198;2024-01-15T05:20:10;100743.88;;;2.57;29.15
50105;BME280;47690;39.202;-77.198;2024-01-15T05:22:39;100728.56;;;2.55;29.06
50105;BME280;47690;39.202;-77.198;2024-01-15T05:25:07;100727.72;;;2.55;29.51
50105;BME280;47690;39.202;-77.198;2024-01-15T05:27:36;100733.66;;;2.55;29.06
50105;BME280;47690;39.202;-77.198;2024-01-15T05:30:05;100726.91;;;2.57;29.17
50105;BME280;47690;39.202;-77.198;2024-01-15T05:32:36;100725.19;;;2.55;29.18
50105;BME280;47690;39.202;-77.198;2024-01-15T05:35:07;100719.88;;;2.47;28.80
50105;BME280;47690;39.202;-77.198;2024-01-15T05:37:35;100733.09;;;2.34;28.76
50105;BME280;47690;39.202;-77.198;2024-01-15T05:40:05;100734.66;;;2.28;28.96
50105;BME280;47690;39.202;-77.198;2024-01-15T05:42:34;100732.94;;;2.27;29.32
50105;BME280;47690;39.202;-77.198;2024-01-15T05:45:04;100727.91;;;2.29;29.19
50105;BME280;47690;39.202;-77.198;2024-01-15T05:47:35;100733.81;;;2.28;28.93
50105;BME280;47690;39.202;-77.198;2024-01-15T05:50:08;100724.41;;;2.25;28.51
50105;BME280;47690;39.202;-77.198;2024-01-15T05:52:36;100724.34;;;2.22;28.88
50105;BME280;47690;39.202;-77.198;2024-01-15T05:55:05;100737.84;;;2.21;29.13
50105;BME280;47690;39.202;-77.198;2024-01-15T05:57:34;100742.94;;;2.21;29.09
50105;BME280;47690;39.202;-77.198;2024-01-15T06:00:05;100738.66;;;2.18;28.50
50105;BME280;47690;39.202;-77.198;2024-01-15T06:02:36;100746.13;;;2.14;29.01
50105;BME280;47690;39.202;-77.198;2024-01-15T06:05:05;100751.19;;;2.14;29.25
50105;BME280;47690;39.202;-77.198;2024-01-15T06:07:35;100759.78;;;2.17;28.92
50105;BME280;47690;39.202;-77.198;2024-01-15T06:10:04;100743.75;;;2.20;28.70
50105;BME280;47690;39.202;-77.198;2024-01-15T06:12:33;100744.63;;;2.21;28.74
50105;BME280;47690;39.202;-77.198;2024-01-15T06:15:05;100747.88;;;2.15;28.61
50105;BME280;47690;39.202;-77.198;2024-01-15T06:17:33;100747.59;;;2.05;28.93
50105;BME280;47690;39.202;-77.198;2024-01-15T06:20:05;100756.69;;;1.97;28.92
50105;BME280;47690;39.202;-77.198;2024-01-15T06:22:34;100767.63;;;1.95;29.15
50105;BME280;47690;39.202;-77.198;2024-01-15T06:25:07;100774.53;;;1.99;28.83
50105;BME280;47690;39.202;-77.198;2024-01-15T06:27:38;100767.78;;;1.99;29.24
50105;BME280;47690;39.202;-77.198;2024-01-15T06:30:07;100771.94;;;1.97;29.50
50105;BME280;47690;39.202;-77.198;2024-01-15T06:32:35;100773.66;;;1.98;29.00
50105;BME280;47690;39.202;-77.198;2024-01-15T06:35:05;100782.19;;;2.00;29.18
50105;BME280;47690;39.202;-77.198;2024-01-15T06:37:37;100787.41;;;2.05;29.34
50105;BME280;47690;39.202;-77.198;2024-01-15T06:40:06;100795.06;;;2.07;28.81
50105;BME280;47690;39.202;-77.198;2024-01-15T06:42:35;100799.34;;;2.08;29.30
50105;BME280;47690;39.202;-77.198;2024-01-15T06:45:05;100796.63;;;2.01;28.31
50105;BME280;47690;39.202;-77.198;2024-01-15T06:47:33;100808.38;;;1.98;28.65
50105;BME280;47690;39.202;-77.198;2024-01-15T06:50:04;100799.94;;;1.99;29.09
50105;BME280;47690;39.202;-77.198;2024-01-15T06:52:35;100805.97;;;2.02;29.23
50105;BME280;47690;39.202;-77.198;2024-01-15T06:55:04;100805.16;;;2.03;29.50
50105;BME280;47690;39.202;-77.198;2024-01-15T06:57:34;100812.00;;;2.06;29.14
50105;BME280;47690;39.202;-77.198;2024-01-15T07:00:04;100805.38;;;2.11;29.38
50105;BME280;47690;39.202;-77.198;2024-01-15T07:02:35;100819.81;;;2.14;28.99
50105;BME280;47690;39.202;-77.198;2024-01-15T07:05:05;100819.81;;;2.12;28.57
50105;BME280;47690;39.202;-77.198;2024-01-15T07:07:34;100833.34;;;2.11;29.10
50105;BME280;47690;39.202;-77.198;2024-01-15T07:10:05;100831.59;;;2.10;28.97
50105;BME280;47690;39.202;-77.198;2024-01-15T07:12:34;100838.31;;;2.08;29.18
50105;BME280;47690;39.202;-77.198;2024-01-15T07:15:03;100857.88;;;2.11;28.97
50105;BME280;47690;39.202;-77.198;2024-01-15T07:17:37;100860.47;;;2.12;29.31
50105;BME280;47690;39.202;-77.198;2024-01-15T07:20:09;100869.88;;;2.15;29.17
50105;BME280;47690;39.202;-77.198;2024-01-15T07:22:38;100869.88;;;2.15;29.01
50105;BME280;47690;39.202;-77.198;2024-01-15T07:25:07;100875.75;;;2.14;29.37
50105;BME280;47690;39.202;-77.198;2024-01-15T07:27:35;100880.03;;;2.15;28.93
50105;BME280;47690;39.202;-77.198;2024-01-15T07:30:08;100884.31;;;2.17;28.65
50105;BME280;47690;39.202;-77.198;2024-01-15T07:32:37;100886.06;;;2.18;29.38
50105;BME280;47690;39.202;-77.198;2024-01-15T07:35:07;100892.84;;;2.18;28.87
50105;BME280;47690;39.202;-77.198;2024-01-15T07:37:36;100893.72;;;2.18;29.20
50105;BME280;47690;39.202;-77.198;2024-01-15T07:40:06;100896.28;;;2.20;29.07
50105;BME280;47690;39.202;-77.198;2024-01-15T07:42:36;100902.22;;;2.21;28.49
50105;BME280;47690;39.202;-77.198;2024-01-15T07:45:06;100898.91;;;2.23;28.86
50105;BME280;47690;39.202;-77.198;2024-01-15T07:47:34;100915.06;;;2.25;29.20
50105;BME280;47690;39.202;-77.198;2024-01-15T07:50:05;100909.94;;;2.24;29.29
50105;BME280;47690;39.202;-77.198;2024-01-15T07:52:34;100917.47;;;2.21;29.20
50105;BME280;47690;39.202;-77.198;2024-01-15T07:55:04;100924.91;;;2.14;29.22
50105;BME280;47690;39.202;-77.198;2024-01-15T07:57:33;100922.25;;;2.10;29.57
50105;BME280;47690;39.202;-77.198;2024-01-15T08:00:05;100932.28;;;2.05;29.92
50105;BME280;47690;39.202;-77.198;2024-01-15T08:02:36;100927.13;;;2.03;30.41
50105;BME280;47690;39.202;-77.198;2024-01-15T08:05:05;100933.94;;;2.04;30.46
50105;BME280;47690;39.202;-77.198;2024-01-15T08:07:36;100932.16;;;2.02;30.52
50105;BME280;47690;39.202;-77.198;2024-01-15T08:10:06;100939.75;;;2.00;30.99
50105;BME280;47690;39.202;-77.198;2024-01-15T08:12:34;100940.47;;;1.96;30.92
50105;BME280;47690;39.202;-77.198;2024-01-15T08:15:06;100940.38;;;1.93;31.51
50105;BME280;47690;39.202;-77.198;2024-01-15T08:17:35;100936.06;;;1.90;31.73
50105;BME280;47690;39.202;-77.198;2024-01-15T08:20:08;100933.47;;;1.89;31.86
50105;BME280;47690;39.202;-77.198;2024-01-15T08:22:38;100941.97;;;1.89;31.94
50105;BME280;47690;39.202;-77.198;2024-01-15T08:25:10;100938.53;;;1.89;31.86
50105;BME280;47690;39.202;-77.198;2024-01-15T08:27:39;100935.16;;;1.88;31.57
50105;BME280;47690;39.202;-77.198;2024-01-15T08:30:08;100934.97;;;1.84;32.06
50105;BME280;47690;39.202;-77.198;2024-01-15T08:32:37;100936.72;;;1.85;32.27
50105;BME280;47690;39.202;-77.198;2024-01-15T08:35:11;100937.56;;;1.85;32.46
50105;BME280;47690;39.202;-77.198;2024-01-15T08:37:40;100931.53;;;1.82;32.44
50105;BME280;47690;39.202;-77.198;2024-01-15T08:40:08;100928.78;;;1.75;32.82
50105;BME280;47690;39.202;-77.198;2024-01-15T08:42:37;100931.19;;;1.71;32.54
50105;BME280;47690;39.202;-77.198;2024-01-15T08:45:05;100930.97;;;1.63;32.96
50105;BME280;47690;39.202;-77.198;2024-01-15T08:47:35;100922.19;;;1.55;33.22
50105;BME280;47690;39.202;-77.198;2024-01-15T08:50:07;100926.31;;;1.51;33.50
50105;BME280;47690;39.202;-77.198;2024-01-15T08:52:38;100931.31;;;1.48;33.77
50105;BME280;47690;39.202;-77.198;2024-01-15T08:55:07;100923.59;;;1.45;34.18
50105;BME280;47690;39.202;-77.198;2024-01-15T08:57:36;100919.28;;;1.42;34.31
50105;BME280;47690;39.202;-77.198;2024-01-15T09:00:06;100920.09;;;1.41;34.66
50105;BME280;47690;39.202;-77.198;2024-01-15T09:02:43;100922.66;;;1.43;35.12
50105;BME280;47690;39.202;-77.198;2024-01-15T09:05:14;100916.81;;;1.45;34.94
50105;BME280;47690;39.202;-77.198;2024-01-15T09:07:44;100917.72;;;1.47;35.41
50105;BME280;47690;39.202;-77.198;2024-01-15T09:10:15;100921.16;;;1.48;35.13
50105;BME280;47690;39.202;-77.198;2024-01-15T09:12:44;100918.53;;;1.45;35.35
50105;BME280;47690;39.202;-77.198;2024-01-15T09:15:14;100919.22;;;1.41;35.46
50105;BME280;47690;39.202;-77.198;2024-01-15T09:17:43;100927.59;;;1.38;35.49
50105;BME280;47690;39.202;-77.198;2024-01-15T09:20:11;100925.78;;;1.34;35.53
50105;BME280;47690;39.202;-77.198;2024-01-15T09:22:41;100919.75;;;1.32;35.69
50105;BME280;47690;39.202;-77.198;2024-01-15T09:25:10;100928.09;;;1.28;35.94
50105;BME280;47690;39.202;-77.198;2024-01-15T09:27:38;100930.53;;;1.25;35.75
50105;BME280;47690;39.202;-77.198;2024-01-15T09:30:07;100936.31;;;1.20;35.92
50105;BME280;47690;39.202;-77.198;2024-01-15T09:32:37;100935.44;;;1.20;36.14
50105;BME280;47690;39.202;-77.198;2024-01-15T09:35:06;100943.03;;;1.18;36.16
50105;BME280;47690;39.202;-77.198;2024-01-15T09:37:35;100935.34;;;1.17;36.37
50105;BME280;47690;39.202;-77.198;2024-01-15T09:40:15;100944.69;;;1.18;36.44
50105;BME280;47690;39.202;-77.198;2024-01-15T09:42:44;100943.81;;;1.17;36.81
50105;BME280;47690;39.202;-77.198;2024-01-15T09:45:14;100942.25;;;1.21;36.55
50105;BME280;47690;39.202;-77.198;2024-01-15T09:47:43;100939.69;;;1.19;36.40
50105;BME280;47690;39.202;-77.198;2024-01-15T09:50:14;100937.16;;;1.21;36.92
50105;BME280;47690;39.202;-77.198;2024-01-15T09:52:46;100931.03;;;1.14;37.08
50105;BME280;47690;39.202;-77.198;2024-01-15T09:55:15;100931.94;;;1.16;36.84
50105;BME280;47690;39.202;-77.198;2024-01-15T09:57:44;100930.97;;;1.13;36.75
50105;BME280;47690;39.202;-77.198;2024-01-15T10:00:17;100925.78;;;1.09;36.99
50105;BME280;47690;39.202;-77.198;2024-01-15T10:02:46;100935.03;;;1.07;36.98
50105;BME280;47690;39.202;-77.198;2024-01-15T10:05:15;100934.91;;;1.04;37.06
50105;BME280;47690;39.202;-77.198;2024-01-15T10:07:46;100945.97;;;1.06;37.28
50105;BME280;47690;39.202;-77.198;2024-01-15T10:10:18;100939.94;;;1.03;37.57
50105;BME280;47690;39.202;-77.198;2024-01-15T10:12:46;100939.88;;;1.01;37.44
50105;BME280;47690;39.202;-77.198;2024-01-15T10:15:15;100950.88;;;1.02;37.89
50105;BME280;47690;39.202;-77.198;2024-01-15T10:17:45;100950.06;;;1.03;38.10
50105;BME280;47690;39.202;-77.198;2024-01-15T10:20:13;100951.81;;;1.04;38.24
50105;BME280;47690;39.202;-77.198;2024-01-15T10:22:42;100947.53;;;1.03;38.37
50105;BME280;47690;39.202;-77.198;2024-01-15T10:25:15;100950.03;;;1.01;38.07
50105;BME280;47690;39.202;-77.198;2024-01-15T10:27:44;100954.25;;;1.01;38.04
50105;BME280;47690;39.202;-77.198;2024-01-15T10:30:15;100958.50;;;1.02;38.29
50105;BME280;47690;39.202;-77.198;2024-01-15T10:32:57;100964.44;;;1.02;38.70
50105;BME280;47690;39.202;-77.198;2024-01-15T10:35:35;100966.94;;;1.01;38.61
50105;BME280;47690;39.202;-77.198;2024-01-15T10:38:05;100966.88;;;0.99;38.58
50105;BME280;47690;39.202;-77.198;2024-01-15T10:40:34;100951.59;;;0.98;38.64
50105;BME280;47690;39.202;-77.198;2024-01-15T10:43:03;100960.13;;;1.00;38.23
50105;BME280;47690;39.202;-77.198;2024-01-15T10:45:33;100958.41;;;0.99;38.57
50105;BME280;47690;39.202;-77.198;2024-01-15T10:48:05;100945.72;;;0.99;39.04
50105;BME280;47690;39.202;-77.198;2024-01-15T10:50:34;100957.66;;;1.01;39.03
50105;BME280;47690;39.202;-77.198;2024-01-15T10:53:04;100952.63;;;1.03;38.79
50105;BME280;47690;39.202;-77.198;2024-01-15T10:55:35;100953.44;;;1.02;38.99
50105;BME280;47690;39.202;-77.198;2024-01-15T10:58:07;100944.16;;;1.02;39.22
50105;BME280;47690;39.202;-77.198;2024-01-15T11:00:36;100954.38;;;1.04;39.14
50105;BME280;47690;39.202;-77.198;2024-01-15T11:03:07;100959.44;;;1.04;39.16
50105;BME280;47690;39.202;-77.198;2024-01-15T11:05:39;100962.81;;;1.04;39.00
50105;BME280;47690;39.202;-77.198;2024-01-15T11:08:09;100958.66;;;1.06;39.36
50105;BME280;47690;39.202;-77.198;2024-01-15T11:10:40;100960.41;;;1.07;39.32
50105;BME280;47690;39.202;-77.198;2024-01-15T11:13:14;100960.41;;;1.07;39.11
50105;BME280;47690;39.202;-77.198;2024-01-15T11:16:08;100965.59;;;1.11;40.03
50105;BME280;47690;39.202;-77.198;2024-01-15T11:18:37;100951.25;;;1.11;39.29
50105;BME280;47690;39.202;-77.198;2024-01-15T11:23:54;100962.38;;;1.16;39.49
50105;BME280;47690;39.202;-77.198;2024-01-15T11:26:36;100963.25;;;1.17;39.65
50105;BME280;47690;39.202;-77.198;2024-01-15T11:29:06;100955.50;;;1.12;39.50
50105;BME280;47690;39.202;-77.198;2024-01-15T11:34:10;100952.16;;;1.13;40.01
50105;BME280;47690;39.202;-77.198;2024-01-15T11:42:00;100955.75;;;1.20;39.41
50105;BME280;47690;39.202;-77.198;2024-01-15T11:44:37;100943.88;;;1.19;39.84
50105;BME280;47690;39.202;-77.198;2024-01-15T11:47:07;100945.50;;;1.17;39.68
50105;BME280;47690;39.202;-77.198;2024-01-15T11:49:59;100955.88;;;1.23;40.05
50105;BME280;47690;39.202;-77.198;2024-01-15T11:52:36;100952.41;;;1.21;39.64
50105;BME280;47690;39.202;-77.198;2024-01-15T11:55:16;100949.06;;;1.22;40.13
50105;BME280;47690;39.202;-77.198;2024-01-15T11:57:50;100954.09;;;1.20;39.73
50105;BME280;47690;39.202;-77.198;2024-01-15T12:00:21;100948.88;;;1.17;39.68
50105;BME280;47690;39.202;-77.198;2024-01-15T12:02:50;100941.25;;;1.16;39.72
50105;BME280;47690;39.202;-77.198;2024-01-15T12:05:20;100935.28;;;1.15;40.20
50105;BME280;47690;39.202;-77.198;2024-01-15T12:07:49;100946.41;;;1.19;39.80
50105;BME280;47690;39.202;-77.198;2024-01-15T12:10:21;100944.75;;;1.19;39.88
50105;BME280;47690;39.202;-77.198;2024-01-15T12:15:35;100944.00;;;1.22;40.24
50105;BME280;47690;39.202;-77.198;2024-01-15T12:18:04;100937.34;;;1.26;40.04
50105;BME280;47690;39.202;-77.198;2024-01-15T12:20:35;100924.59;;;1.24;40.33
50105;BME280;47690;39.202;-77.198;2024-01-15T12:23:06;100922.13;;;1.26;40.32
50105;BME280;47690;39.202;-77.198;2024-01-15T12:25:36;100915.28;;;1.25;40.28
50105;BME280;47690;39.202;-77.198;2024-01-15T12:28:05;100934.84;;;1.27;40.25
50105;BME280;47690;39.202;-77.198;2024-01-15T12:30:46;100945.75;;;1.25;40.62
50105;BME280;47690;39.202;-77.198;2024-01-15T12:33:19;100952.38;;;1.19;40.17
50105;BME280;47690;39.202;-77.198;2024-01-15T12:35:49;100963.34;;;1.20;40.18
50105;BME280;47690;39.202;-77.198;2024-01-15T12:38:22;100959.16;;;1.20;40.22
50105;BME280;47690;39.202;-77.198;2024-01-15T12:40:51;100954.91;;;1.19;40.43
50105;BME280;47690;39.202;-77.198;2024-01-15T12:43:21;100967.47;;;1.16;40.57
50105;BME280;47690;39.202;-77.198;2024-01-15T12:45:52;100984.31;;;1.14;40.38
50105;BME280;47690;39.202;-77.198;2024-01-15T12:48:24;100980.81;;;1.11;40.29
50105;BME280;47690;39.202;-77.198;2024-01-15T12:50:53;100985.00;;;1.10;40.25
50105;BME280;47690;39.202;-77.198;2024-01-15T12:53:21;100980.75;;;1.09;40.45
50105;BME280;47690;39.202;-77.198;2024-01-15T12:55:50;100967.22;;;1.08;40.36
50105;BME280;47690;39.202;-77.198;2024-01-15T12:58:19;100952.91;;;1.11;40.65
50105;BME280;47690;39.202;-77.198;2024-01-15T13:00:51;100943.72;;;1.14;40.80
50105;BME280;47690;39.202;-77.198;2024-01-15T13:03:24;100963.34;;;1.18;40.59
50105;BME280;47690;39.202;-77.198;2024-01-15T13:05:55;100965.16;;;1.22;41.05
50105;BME280;47690;39.202;-77.198;2024-01-15T13:08:24;100957.47;;;1.21;40.74
50105;BME280;47690;39.202;-77.198;2024-01-15T13:10:56;100964.31;;;1.22;40.68